Time;durP1;ratioP1;P1;durP2;ratioP2;P2;SDS_P1;SDS_P2;PMS_P1;PMS_P2;Temp;Humidity;BMP_temperature;BMP_pressure;BME280_temperature;BME280_humidity;BME280_pressure;Samples;Min_cycle;Max_cycle;Signal;HPM_P1;HPM_P2
2023/04/03 00:01:16;;;;;;;19.93;9.73;;;5.30;99.90;;;;;;5120455;23;20214;-94
2023/04/03 00:03:20;;;;;;;19.73;9.10;;;5.30;99.90;;;;;;5120169;23;20172;-94
2023/04/03 00:05:23;;;;;;;16.63;8.90;;;5.40;99.90;;;;;;5095822;23;20149;-93
2023/04/03 00:07:25;;;;;;;14.97;8.87;;;5.50;99.90;;;;;;5120588;23;20230;-95
2023/04/03 00:09:26;;;;;;;17.37;8.90;;;5.70;99.90;;;;;;5120715;23;20168;-95
2023/04/03 00:11:29;;;;;;;17.43;8.23;;;5.70;99.90;;;;;;5095417;23;20610;-93
2023/04/03 00:13:31;;;;;;;15.10;8.10;;;5.60;99.90;;;;;;5095309;23;20153;-95
2023/04/03 00:15:35;;;;;;;13.43;7.60;;;5.50;99.90;;;;;;5120380;23;20152;-93
2023/04/03 00:17:36;;;;;;;15.33;7.30;;;5.50;99.90;;;;;;5096218;23;20200;-95
2023/04/03 00:19:37;;;;;;;12.13;6.90;;;5.40;99.90;;;;;;5120750;23;20210;-93
2023/04/03 00:21:38;;;;;;;14.30;7.20;;;5.40;99.90;;;;;;5120687;23;20152;-94
2023/04/03 00:23:39;;;;;;;12.57;7.17;;;5.30;99.90;;;;;;5095646;23;20157;-95
2023/04/03 00:25:40;;;;;;;11.80;7.13;;;5.30;99.90;;;;;;5120146;23;20155;-95
2023/04/03 00:27:41;;;;;;;12.27;7.27;;;5.20;99.90;;;;;;5095134;23;20196;-94
2023/04/03 00:29:42;;;;;;;10.50;7.37;;;5.20;99.90;;;;;;5095808;23;20472;-95
2023/04/03 00:31:42;;;;;;;11.87;7.33;;;5.10;99.90;;;;;;5120320;23;20621;-95
2023/04/03 00:33:43;;;;;;;13.30;7.00;;;5.20;99.90;;;;;;5119872;23;20155;-95
2023/04/03 00:35:44;;;;;;;14.80;6.77;;;5.20;99.90;;;;;;5095314;23;20156;-95
2023/04/03 00:37:50;;;;;;;10.43;6.47;;;5.30;99.90;;;;;;5095631;23;20596;-94
2023/04/03 00:39:54;;;;;;;14.87;6.70;;;5.20;99.90;;;;;;5119783;23;20151;-95
2023/04/03 00:41:57;;;;;;;12.30;6.43;;;5.20;99.90;;;;;;5119199;23;20749;-94
2023/04/03 00:43:58;;;;;;;15.33;7.40;;;5.20;99.90;;;;;;5095394;23;20193;-94
2023/04/03 00:46:06;;;;;;;10.57;6.50;;;5.20;99.90;;;;;;5098035;23;20608;-93
2023/04/03 00:48:13;;;;;;;14.03;6.83;;;5.10;99.90;;;;;;5121524;23;20156;-94
2023/04/03 00:50:14;;;;;;;10.17;6.20;;;5.10;99.90;;;;;;5094557;23;20216;-94
2023/04/03 00:52:25;;;;;;;13.43;6.73;;;5.10;99.90;;;;;;5096386;23;20176;-94
2023/04/03 00:54:32;;;;;;;13.97;6.70;;;5.10;99.90;;;;;;5120343;23;20148;-95
2023/04/03 00:56:39;;;;;;;14.90;7.53;;;5.20;99.90;;;;;;5119919;23;20164;-94
2023/04/03 00:58:51;;;;;;;21.43;9.50;;;5.20;99.90;;;;;;5120835;23;20604;-95
2023/04/03 01:00:58;;;;;;;15.83;7.50;;;5.20;99.90;;;;;;5100880;23;20211;-94
2023/04/03 01:03:14;;;;;;;18.43;8.70;;;5.10;99.90;;;;;;5101149;23;20168;-95
2023/04/03 01:05:17;;;;;;;13.63;6.60;;;4.60;99.90;;;;;;5102276;23;20193;-96
2023/04/03 01:07:28;;;;;;;14.17;6.97;;;4.10;99.90;;;;;;5077829;23;20225;-95
2023/04/03 01:09:30;;;;;;;25.77;9.53;;;3.70;99.90;;;;;;5098177;23;20163;-93
2023/04/03 01:11:32;;;;;;;24.47;9.30;;;3.60;99.90;;;;;;5094965;23;20157;-95
2023/04/03 01:13:34;;;;;;;19.13;8.57;;;4.00;99.90;;;;;;5094351;23;20144;-94
2023/04/03 01:15:35;;;;;;;17.63;7.77;;;4.50;99.90;;;;;;5094990;23;20153;-95
2023/04/03 01:17:42;;;;;;;22.57;9.03;;;5.00;99.90;;;;;;5119130;23;20160;-93
2023/04/03 01:19:51;;;;;;;14.30;7.43;;;5.30;99.90;;;;;;5094665;23;20159;-95
2023/04/03 01:22:18;;;;;;;14.27;7.97;;;5.20;99.90;;;;;;5119486;23;20664;-94
2023/04/03 01:24:33;;;;;;;18.80;8.33;;;5.20;99.90;;;;;;5094560;23;20168;-95
2023/04/03 01:26:35;;;;;;;13.53;7.23;;;5.10;99.90;;;;;;5094483;23;20195;-94
2023/04/03 01:28:36;;;;;;;11.97;7.10;;;5.10;99.90;;;;;;5094806;23;20413;-95
2023/04/03 01:30:44;;;;;;;18.37;6.80;;;5.10;99.90;;;;;;5095229;23;20156;-93
2023/04/03 01:32:46;;;;;;;9.87;5.83;;;5.00;99.90;;;;;;5119103;23;20164;-95
2023/04/03 01:34:49;;;;;;;13.77;6.17;;;5.00;99.90;;;;;;5095341;23;20149;-95
2023/04/03 01:36:53;;;;;;;9.80;6.20;;;4.90;99.90;;;;;;5119874;23;20172;-94
2023/04/03 01:38:56;;;;;;;13.63;6.60;;;4.80;99.90;;;;;;5095068;23;20180;-94
2023/04/03 01:40:58;;;;;;;12.37;6.30;;;4.80;99.90;;;;;;5095636;23;20160;-94
2023/04/03 01:43:03;;;;;;;12.17;6.47;;;4.80;99.90;;;;;;5095331;23;20231;-94
2023/04/03 01:45:05;;;;;;;13.97;6.37;;;4.80;99.90;;;;;;5094569;23;20179;-95
2023/04/03 01:47:07;;;;;;;10.90;6.03;;;4.80;99.90;;;;;;5094663;23;20204;-94
2023/04/03 01:49:11;;;;;;;13.13;6.57;;;4.80;99.90;;;;;;5094787;23;20268;-94
2023/04/03 01:51:12;;;;;;;11.93;6.87;;;4.70;99.90;;;;;;5119163;23;20148;-93
2023/04/03 01:53:13;;;;;;;17.13;6.67;;;4.70;99.90;;;;;;5118796;23;20481;-94
2023/04/03 01:55:17;;;;;;;11.17;5.73;;;4.60;99.90;;;;;;5119032;23;20171;-95
2023/04/03 01:57:18;;;;;;;13.60;6.50;;;4.50;99.90;;;;;;5119020;23;20172;-96
2023/04/03 01:59:21;;;;;;;12.00;6.30;;;4.50;99.90;;;;;;5096187;23;20188;-96
2023/04/03 02:01:22;;;;;;;10.90;6.73;;;4.50;99.90;;;;;;5119691;23;20149;-94
2023/04/03 02:03:26;;;;;;;10.17;6.27;;;4.60;99.90;;;;;;5119444;23;20247;-95
2023/04/03 02:05:29;;;;;;;9.03;5.67;;;4.60;99.90;;;;;;5095996;23;20508;-94
2023/04/03 02:07:30;;;;;;;10.00;6.00;;;4.50;99.90;;;;;;5094969;23;20232;-96
2023/04/03 02:09:31;;;;;;;12.73;5.63;;;4.60;99.90;;;;;;5094999;23;20569;-94
2023/04/03 02:11:33;;;;;;;10.10;5.90;;;4.60;99.90;;;;;;5094710;23;20176;-94
2023/04/03 02:13:34;;;;;;;13.23;5.73;;;4.60;99.90;;;;;;5095320;23;20174;-95
2023/04/03 02:15:40;;;;;;;13.00;6.30;;;4.60;99.90;;;;;;5095169;23;20592;-95
2023/04/03 02:17:41;;;;;;;10.67;6.27;;;4.60;99.90;;;;;;5120004;23;20186;-95
2023/04/03 02:19:42;;;;;;;10.17;5.67;;;4.60;99.90;;;;;;5094318;23;20215;-93
2023/04/03 02:21:43;;;;;;;11.43;5.60;;;4.70;99.90;;;;;;5094809;23;20176;-94
2023/04/03 02:23:46;;;;;;;12.67;6.13;;;4.60;99.90;;;;;;5119882;23;20156;-95
2023/04/03 02:25:48;;;;;;;8.70;5.43;;;4.60;99.90;;;;;;5118718;23;20159;-94
2023/04/03 02:27:49;;;;;;;13.37;5.47;;;4.60;99.90;;;;;;5093895;23;20191;-93
2023/04/03 02:29:50;;;;;;;13.93;6.00;;;4.50;99.90;;;;;;5094258;23;20149;-95
2023/04/03 02:31:51;;;;;;;9.53;5.50;;;4.50;99.90;;;;;;5119373;23;20203;-95
2023/04/03 02:33:55;;;;;;;14.37;6.07;;;4.40;99.90;;;;;;5094273;23;20604;-95
2023/04/03 02:35:56;;;;;;;11.67;6.30;;;4.30;99.90;;;;;;5118456;23;20190;-94
2023/04/03 02:37:57;;;;;;;10.43;6.13;;;4.30;99.90;;;;;;5119264;23;20595;-93
2023/04/03 02:39:59;;;;;;;11.17;5.77;;;4.20;99.90;;;;;;5094595;23;20232;-93
2023/04/03 02:42:02;;;;;;;9.47;5.57;;;4.10;99.90;;;;;;5094289;23;20305;-95
2023/04/03 02:44:06;;;;;;;11.60;6.17;;;4.10;99.90;;;;;;5094824;23;20149;-94
2023/04/03 02:46:07;;;;;;;10.50;5.30;;;4.00;99.90;;;;;;5097682;23;20635;-94
2023/04/03 02:48:08;;;;;;;11.23;6.00;;;4.00;99.90;;;;;;5097679;23;20168;-94
2023/04/03 02:50:09;;;;;;;12.73;6.00;;;4.00;99.90;;;;;;5094092;23;20175;-94
2023/04/03 02:52:10;;;;;;;7.93;5.47;;;4.00;99.90;;;;;;5094633;23;20679;-95
2023/04/03 02:54:14;;;;;;;12.73;6.60;;;4.00;99.90;;;;;;5094638;23;20153;-94
2023/04/03 02:56:20;;;;;;;12.93;5.77;;;3.90;99.90;;;;;;5095323;23;20527;-94
2023/04/03 02:58:21;;;;;;;10.80;5.90;;;3.90;99.90;;;;;;5120407;23;20231;-93
2023/04/03 03:00:24;;;;;;;12.03;5.70;;;3.90;99.90;;;;;;5095412;23;20153;-95
2023/04/03 03:02:25;;;;;;;10.40;6.20;;;3.80;99.90;;;;;;5095911;23;20183;-94
2023/04/03 03:04:28;;;;;;;12.13;6.37;;;3.80;99.90;;;;;;5096350;23;20154;-93
2023/04/03 03:06:31;;;;;;;12.13;6.20;;;3.80;99.90;;;;;;5121456;23;20199;-94
2023/04/03 03:08:34;;;;;;;9.20;5.67;;;3.80;99.90;;;;;;5096652;23;20170;-95
2023/04/03 03:10:35;;;;;;;11.23;5.70;;;3.80;99.90;;;;;;5096345;23;20220;-95
2023/04/03 03:12:40;;;;;;;11.37;5.87;;;3.90;99.90;;;;;;5096604;23;20177;-95
2023/04/03 03:14:44;;;;;;;9.40;5.57;;;3.90;99.90;;;;;;5096495;23;20157;-95
2023/04/03 03:16:47;;;;;;;13.20;6.07;;;3.90;99.90;;;;;;5096449;23;20153;-96
2023/04/03 03:18:55;;;;;;;10.33;5.97;;;4.00;99.90;;;;;;5122051;23;20156;-94
2023/04/03 03:21:00;;;;;;;11.57;5.87;;;4.10;99.90;;;;;;5121447;23;20147;-95
2023/04/03 03:23:05;;;;;;;8.47;5.63;;;4.10;99.90;;;;;;5097036;23;20177;-94
2023/04/03 03:25:16;;;;;;;10.67;6.00;;;4.20;99.90;;;;;;5097307;23;20230;-93
2023/04/03 03:27:20;;;;;;;12.33;6.03;;;4.20;99.90;;;;;;5097590;23;20187;-96
2023/04/03 03:29:21;;;;;;;11.07;6.70;;;4.20;99.90;;;;;;5096766;23;20621;-94
2023/04/03 03:31:27;;;;;;;9.97;6.20;;;4.20;99.90;;;;;;5097706;23;20153;-94
2023/04/03 03:33:35;;;;;;;11.67;6.23;;;4.10;99.90;;;;;;5121400;23;20173;-95
2023/04/03 03:35:38;;;;;;;11.17;6.33;;;4.00;99.90;;;;;;5122465;23;20226;-96
2023/04/03 03:37:45;;;;;;;10.23;5.43;;;4.00;99.90;;;;;;5096765;23;20223;-94
2023/04/03 03:39:55;;;;;;;14.27;5.93;;;4.00;99.90;;;;;;5096354;23;20161;-94
2023/04/03 03:41:58;;;;;;;14.57;6.97;;;3.90;99.90;;;;;;5098279;23;20504;-94
2023/04/03 03:44:01;;;;;;;10.73;6.40;;;3.80;99.90;;;;;;5122567;23;20164;-94
2023/04/03 03:46:10;;;;;;;12.40;6.33;;;3.80;99.90;;;;;;5096916;23;20144;-94
2023/04/03 03:48:16;;;;;;;14.03;7.07;;;3.80;99.90;;;;;;5098756;23;20153;-96
2023/04/03 03:50:23;;;;;;;9.83;6.30;;;3.80;99.90;;;;;;5121283;23;20194;-93
2023/04/03 03:52:32;;;;;;;13.23;6.57;;;3.90;99.90;;;;;;5121411;23;20175;-94
2023/04/03 03:54:37;;;;;;;11.70;6.73;;;3.90;99.90;;;;;;5121280;23;20235;-94
2023/04/03 03:56:46;;;;;;;12.50;6.37;;;3.90;99.90;;;;;;5096853;23;20164;-94
2023/04/03 03:58:52;;;;;;;9.27;6.03;;;4.00;99.90;;;;;;5120606;23;20159;-95
2023/04/03 04:00:53;;;;;;;12.20;6.77;;;3.90;99.90;;;;;;5121577;23;20464;-95
2023/04/03 04:03:08;;;;;;;14.03;7.23;;;3.90;99.90;;;;;;5096436;23;20183;-95
2023/04/03 04:05:27;;;;;;;12.43;6.93;;;3.90;99.90;;;;;;5097912;23;20149;-95
2023/04/03 04:07:36;;;;;;;11.80;6.77;;;4.00;99.90;;;;;;5095362;23;20207;-95
2023/04/03 04:09:45;;;;;;;16.80;6.53;;;3.90;99.90;;;;;;5096288;23;20587;-94
2023/04/03 04:11:48;;;;;;;13.27;6.70;;;3.90;99.90;;;;;;5119997;23;20598;-92
2023/04/03 04:13:55;;;;;;;11.63;7.20;;;3.90;99.90;;;;;;5120192;23;20159;-95
2023/04/03 04:16:07;;;;;;;14.67;7.07;;;3.80;99.90;;;;;;5120702;23;20159;-94
2023/04/03 04:18:17;;;;;;;13.00;7.27;;;3.80;99.90;;;;;;5120522;23;20226;-94
2023/04/03 04:20:26;;;;;;;10.70;6.40;;;3.60;99.90;;;;;;5119400;23;20186;-93
2023/04/03 04:22:30;;;;;;;19.33;8.00;;;3.50;99.90;;;;;;5094630;23;20196;-94
2023/04/03 04:24:34;;;;;;;13.77;6.87;;;3.50;99.90;;;;;;5120045;23;20155;-95
2023/04/03 04:26:37;;;;;;;14.20;6.93;;;3.50;99.90;;;;;;5120728;23;20192;-95
2023/04/03 04:28:38;;;;;;;13.97;6.93;;;3.60;99.90;;;;;;5121013;23;20152;-94
2023/04/03 04:30:42;;;;;;;9.47;6.13;;;3.60;99.90;;;;;;5096389;23;20164;-94
2023/04/03 04:32:55;;;;;;;13.07;6.37;;;3.70;99.90;;;;;;5120355;23;20183;-94
2023/04/03 04:35:10;;;;;;;10.17;6.33;;;3.80;99.90;;;;;;5120495;23;20160;-94
2023/04/03 04:37:17;;;;;;;11.97;6.73;;;3.80;99.90;;;;;;5119819;23;20586;-94
2023/04/03 04:39:22;;;;;;;10.83;6.07;;;3.80;99.90;;;;;;5120549;23;20156;-94
2023/04/03 04:41:27;;;;;;;13.37;6.80;;;3.80;99.90;;;;;;5124633;23;20152;-94
2023/04/03 04:43:28;;;;;;;12.90;6.73;;;3.80;99.90;;;;;;5110404;23;20152;-94
2023/04/03 04:45:29;;;;;;;11.03;6.70;;;3.70;99.90;;;;;;5108725;23;20215;-94
2023/04/03 04:47:30;;;;;;;13.63;6.83;;;3.70;99.90;;;;;;5118048;23;20192;-94
2023/04/03 04:49:31;;;;;;;10.23;6.80;;;3.60;99.90;;;;;;5119023;23;20219;-94
2023/04/03 04:51:32;;;;;;;16.47;7.03;;;3.50;99.90;;;;;;5094082;23;20153;-94
2023/04/03 04:53:39;;;;;;;19.43;7.20;;;3.40;99.90;;;;;;5094547;23;20236;-94
2023/04/03 04:55:43;;;;;;;14.00;7.60;;;3.30;99.90;;;;;;5118682;23;20168;-95
2023/04/03 04:57:49;;;;;;;13.93;7.70;;;3.20;99.90;;;;;;5094122;23;20156;-94
2023/04/03 04:59:51;;;;;;;13.50;7.27;;;3.10;99.90;;;;;;5094101;23;20156;-94
2023/04/03 05:01:55;;;;;;;13.47;7.53;;;3.00;99.90;;;;;;5119056;23;20224;-94
2023/04/03 05:03:56;;;;;;;14.43;7.73;;;3.00;99.90;;;;;;5094460;23;20157;-94
2023/04/03 05:06:40;;;;;;;12.23;7.50;;;3.00;99.90;;;;;;5120011;23;20160;-95
2023/04/03 05:09:19;;;;;;;;;;;;;;;;;;;;;
2023/04/03 05:11:56;;;;;;;15.47;8.57;;;3.00;99.90;;;;;;5122351;23;20157;-95
2023/04/03 05:14:19;;;;;;;14.57;7.53;;;2.90;99.90;;;;;;5123556;23;20203;-96
2023/04/03 05:16:40;;;;;;;15.63;7.93;;;2.90;99.90;;;;;;5122679;23;20155;-95
2023/04/03 05:19:22;;;;;;;15.30;7.60;;;2.90;99.90;;;;;;5097616;23;20160;-94
2023/04/03 05:21:44;;;;;;;12.70;8.00;;;2.80;99.90;;;;;;5095605;23;20635;-94
2023/04/03 05:24:09;;;;;;;;;;;;;;;;;;;;;
2023/04/03 05:26:15;;;;;;;14.67;8.40;;;2.80;99.90;;;;;;5121927;23;20148;-94
2023/04/03 05:28:46;;;;;;;14.43;8.37;;;2.80;99.90;;;;;;5100900;23;20149;-95
2023/04/03 05:31:17;;;;;;;14.97;8.50;;;2.80;99.90;;;;;;5091042;23;20479;-95
2023/04/03 05:33:26;;;;;;;19.07;9.20;;;2.80;99.90;;;;;;5096917;23;20267;-95
2023/04/03 05:36:35;;;;;;;17.17;8.77;;;2.80;99.90;;;;;;5125682;23;20156;-94
2023/04/03 05:39:57;;;;;;;14.40;8.63;;;2.80;99.90;;;;;;5132232;23;20148;-95
2023/04/03 05:45:02;;;;;;;18.37;9.70;;;2.90;99.90;;;;;;5129894;23;20175;-93
2023/04/03 05:47:16;;;;;;;18.60;9.40;;;2.90;99.90;;;;;;5111788;23;20192;-95
2023/04/03 05:49:27;;;;;;;18.33;9.47;;;3.00;99.90;;;;;;5112012;23;20137;-93
2023/04/03 05:51:44;;;;;;;14.23;10.10;;;3.10;99.90;;;;;;5106899;23;20144;-96
2023/04/03 05:54:34;;;;;;;20.20;9.97;;;3.30;99.90;;;;;;5131188;23;20144;-95
2023/04/03 05:57:22;;;;;;;17.77;9.97;;;3.40;99.90;;;;;;5161987;23;20157;-95
2023/04/03 05:59:48;;;;;;;16.93;9.23;;;3.60;99.90;;;;;;5135263;23;20159;-95
2023/04/03 06:05:06;;;;;;;14.77;9.20;;;3.80;99.90;;;;;;5144605;22;20213;-93
2023/04/03 06:07:22;;;;;;;22.33;10.10;;;4.00;99.90;;;;;;5134872;23;20179;-93
2023/04/03 06:09:29;;;;;;;16.40;9.70;;;4.00;99.90;;;;;;5152805;23;20160;-94
2023/04/03 06:11:38;;;;;;;17.80;9.90;;;4.00;99.90;;;;;;5157231;23;20147;-93
2023/04/03 06:14:19;;;;;;;18.67;10.47;;;3.90;99.90;;;;;;5127329;23;20558;-93
2023/04/03 06:16:24;;;;;;;19.80;10.50;;;3.80;99.90;;;;;;5104295;23;20161;-93
2023/04/03 06:18:33;;;;;;;19.43;10.43;;;3.70;99.90;;;;;;5150500;23;20688;-94
2023/04/03 06:20:40;;;;;;;15.13;10.17;;;3.70;99.90;;;;;;5153336;23;20152;-94
2023/04/03 06:22:58;;;;;;;18.83;10.13;;;3.70;99.90;;;;;;5128463;23;20258;-92
2023/04/03 06:25:02;;;;;;;16.17;10.33;;;3.60;99.90;;;;;;5125265;23;20157;-93
2023/04/03 06:27:17;;;;;;;17.23;9.63;;;3.60;99.90;;;;;;5105884;23;20187;-93
2023/04/03 06:29:22;;;;;;;19.47;10.80;;;3.70;99.90;;;;;;5101937;23;20156;-94
2023/04/03 06:31:26;;;;;;;16.07;10.50;;;3.70;99.90;;;;;;5128013;23;20148;-93
2023/04/03 06:33:30;;;;;;;15.93;10.73;;;3.80;99.90;;;;;;5108599;23;20184;-93
2023/04/03 06:35:44;;;;;;;20.67;10.97;;;3.80;99.90;;;;;;5106887;23;20157;-94
2023/04/03 06:37:51;;;;;;;20.13;10.90;;;3.90;99.90;;;;;;5129859;23;20179;-93
2023/04/03 06:39:55;;;;;;;17.57;10.43;;;3.90;99.90;;;;;;5103496;23;20168;-96
2023/04/03 06:41:56;;;;;;;21.00;10.93;;;4.00;99.90;;;;;;5104601;23;20491;-95
2023/04/03 06:44:28;;;;;;;18.43;10.67;;;4.10;99.90;;;;;;5133065;23;20136;-96
2023/04/03 06:46:43;;;;;;;18.60;10.90;;;4.30;99.90;;;;;;5110756;23;20199;-93
2023/04/03 06:48:50;;;;;;;19.83;11.83;;;4.40;99.90;;;;;;5142789;23;20136;-92
2023/04/03 06:50:53;;;;;;;15.23;10.80;;;4.50;99.90;;;;;;5104556;23;20168;-93
2023/04/03 06:55:29;;;;;;;21.77;10.00;;;4.50;99.90;;;;;;5123855;23;20156;-93
2023/04/03 06:57:37;;;;;;;16.00;10.33;;;4.40;99.90;;;;;;5133136;23;20154;-95
2023/04/03 06:59:41;;;;;;;17.03;9.83;;;4.40;99.90;;;;;;5122490;23;20187;-95
2023/04/03 07:01:43;;;;;;;21.60;10.40;;;4.40;99.90;;;;;;5127659;23;20156;-95
2023/04/03 07:03:44;;;;;;;18.17;10.17;;;4.40;99.90;;;;;;5102794;23;20201;-93
2023/04/03 07:05:53;;;;;;;17.37;9.73;;;4.40;99.90;;;;;;5096921;23;20177;-92
2023/04/03 07:07:55;;;;;;;14.97;9.63;;;4.50;99.90;;;;;;5103571;23;20219;-94
2023/04/03 07:10:16;;;;;;;16.90;10.60;;;4.60;99.90;;;;;;5106315;23;20148;-93
2023/04/03 07:12:56;;;;;;;17.97;9.90;;;4.80;99.90;;;;;;5126951;23;20746;-94
2023/04/03 07:15:27;;;;;;;15.67;9.40;;;5.20;99.90;;;;;;5126837;23;20244;-94
2023/04/03 07:17:56;;;;;;;13.37;7.97;;;6.30;99.90;;;;;;5101257;23;20155;-94
2023/04/03 07:20:32;;;;;;;18.17;7.40;;;7.90;99.90;;;;;;5083329;23;20148;-94
2023/04/03 07:22:50;;;;;;;14.60;7.10;;;9.10;99.90;;;;;;5104583;23;20169;-96
2023/04/03 07:25:13;;;;;;;;;;;;;;;;;;;;;
2023/04/03 07:27:34;;;;;;;10.70;6.30;;;10.90;99.90;;;;;;5146876;23;20187;-96
2023/04/03 07:29:49;;;;;;;13.90;6.43;;;11.40;99.90;;;;;;5095574;23;20208;-96
2023/04/03 07:31:50;;;;;;;14.03;6.13;;;11.40;99.90;;;;;;5095719;23;20184;-94
2023/04/03 07:33:57;;;;;;;12.03;6.33;;;11.30;99.90;;;;;;5096434;23;20199;-95
2023/04/03 07:36:04;;;;;;;12.60;5.83;;;10.80;99.90;;;;;;5095252;23;20145;-93
2023/04/03 07:38:25;;;;;;;11.77;6.23;;;10.50;99.90;;;;;;5120785;23;20239;-95
2023/04/03 07:41:00;;;;;;;9.63;6.00;;;10.70;99.90;;;;;;5151658;23;20159;-95
2023/04/03 07:43:57;;;;;;;;;;;;;;;;;;;;;
2023/04/03 07:46:09;;;;;;;8.00;5.20;;;11.40;99.90;;;;;;5122348;23;20156;-95
2023/04/03 07:48:22;;;;;;;7.18;4.88;;;10.90;99.90;;;;;;5099291;23;20213;-96
2023/04/03 07:50:24;;;;;;;13.63;5.28;;;10.10;99.90;;;;;;5106991;23;20235;-95
2023/04/03 07:52:25;;;;;;;7.68;4.82;;;10.60;99.90;;;;;;5105331;23;20192;-96
2023/04/03 07:54:32;;;;;;;11.02;4.88;;;11.20;99.90;;;;;;5094658;23;20155;-96
2023/04/03 07:56:33;;;;;;;10.38;4.90;;;11.80;99.90;;;;;;5122576;23;20240;-96
2023/04/03 07:59:03;;;;;;;8.13;4.80;;;11.80;99.90;;;;;;5098933;23;20207;-94
2023/04/03 08:01:25;;;;;;;7.20;4.65;;;11.90;99.90;;;;;;5105986;23;20141;-95
2023/04/03 08:03:32;;;;;;;9.23;4.80;;;12.00;99.90;;;;;;5128301;23;20233;-95
2023/04/03 08:05:49;;;;;;;13.27;5.13;;;11.60;99.90;;;;;;5128008;23;20152;-95
2023/04/03 08:08:19;;;;;;;8.02;4.70;;;11.30;99.90;;;;;;5154980;23;20191;-95
2023/04/03 08:10:20;;;;;;;8.80;4.70;;;11.20;99.90;;;;;;5156951;23;20155;-95
2023/04/03 08:12:22;;;;;;;9.63;4.70;;;11.10;99.90;;;;;;5137941;23;20172;-95
2023/04/03 08:14:35;;;;;;;11.32;4.45;;;11.20;99.90;;;;;;5122190;23;20153;-96
2023/04/03 08:16:42;;;;;;;7.65;4.07;;;11.20;99.90;;;;;;5123030;23;20148;-95
2023/04/03 08:19:54;;;;;;;8.93;4.00;;;11.40;99.90;;;;;;5125487;23;20159;-96
2023/04/03 08:21:58;;;;;;;6.93;3.70;;;11.70;99.90;;;;;;5032628;23;20236;-94
2023/04/03 08:24:30;;;;;;;6.22;3.58;;;12.00;99.90;;;;;;5173324;22;20174;-96
2023/04/03 08:26:37;;;;;;;10.15;4.28;;;11.80;99.90;;;;;;5147160;23;20266;-96
2023/04/03 08:28:48;;;;;;;11.25;3.55;;;11.10;99.90;;;;;;5124016;23;20215;-94
2023/04/03 08:30:49;;;;;;;6.72;3.30;;;11.30;99.90;;;;;;5151390;23;20152;-95
2023/04/03 08:33:02;;;;;;;10.10;3.85;;;11.80;99.90;;;;;;5133018;23;20175;-95
2023/04/03 08:35:04;;;;;;;8.68;4.30;;;12.00;99.90;;;;;;5125285;23;20624;-94
2023/04/03 08:37:05;;;;;;;7.22;3.67;;;12.10;99.90;;;;;;5122654;23;20159;-94
2023/04/03 08:39:10;;;;;;;10.13;4.05;;;12.40;99.90;;;;;;5124117;23;20626;-95
2023/04/03 08:41:30;;;;;;;7.88;4.00;;;11.70;99.90;;;;;;5121771;23;20156;-96
2023/04/03 08:44:25;;;;;;;9.05;4.30;;;11.50;99.90;;;;;;5151243;23;20182;-96
2023/04/03 08:47:05;;;;;;;9.75;4.20;;;12.20;99.90;;;;;;5084522;23;20204;-96
2023/04/03 08:49:51;;;;;;;9.80;3.72;;;12.20;99.90;;;;;;5159779;22;20136;-94
2023/04/03 08:52:15;;;;;;;6.43;3.80;;;11.20;99.90;;;;;;5132196;23;20140;-95
2023/04/03 08:55:02;;;;;;;7.50;3.50;;;10.80;99.90;;;;;;5159144;23;20156;-94
2023/04/03 08:56:55;;;;;;;6.93;3.40;;;10.50;99.90;;;;;;5141995;23;20170;-96
2023/04/03 08:59:27;;;;;;;8.57;3.60;;;10.50;99.90;;;;;;5130431;23;20148;-96
2023/04/03 09:01:43;;;;;;;7.18;3.67;;;11.10;99.90;;;;;;5155172;23;20166;-96
2023/04/03 09:04:06;;;;;;;9.02;3.90;;;11.30;99.90;;;;;;5151699;23;20163;-96
2023/04/03 09:06:34;;;;;;;7.50;3.35;;;11.00;99.90;;;;;;5183272;22;20142;-95
2023/04/03 09:09:31;;;;;;;7.57;3.40;;;10.80;99.90;;;;;;5154886;23;20211;-94
2023/04/03 09:12:30;;;;;;;7.82;3.20;;;10.50;99.90;;;;;;5032446;23;20273;-95
2023/04/03 09:14:56;;;;;;;13.00;3.65;;;11.00;99.90;;;;;;5155763;22;20144;-94
2023/04/03 09:17:20;;;;;;;8.30;3.28;;;11.00;99.90;;;;;;5158063;23;20159;-95
2023/04/03 09:19:34;;;;;;;7.50;3.28;;;11.30;99.90;;;;;;5165760;22;20163;-95
2023/04/03 09:22:30;;;;;;;6.65;3.05;;;11.50;99.90;;;;;;5139755;23;20144;-95
2023/04/03 09:24:40;;;;;;;7.07;2.80;;;11.40;99.90;;;;;;5110939;23;20172;-95
2023/04/03 09:27:32;;;;;;;8.85;3.00;;;11.70;99.90;;;;;;5153481;23;20191;-96
2023/04/03 09:30:37;;;;;;;7.88;2.72;;;11.50;99.90;;;;;;5161819;22;20166;-94
2023/04/03 09:33:25;;;;;;;6.72;2.28;;;11.20;99.90;;;;;;5099303;23;20201;-95
2023/04/03 09:36:09;;;;;;;6.40;2.50;;;11.20;99.90;;;;;;5131096;23;20183;-95
2023/04/03 09:39:01;;;;;;;7.47;2.58;;;11.80;99.90;;;;;;5039245;23;20218;-95
2023/04/03 09:41:32;;;;;;;7.80;2.70;;;11.60;99.90;;;;;;5161576;23;20155;-95
2023/04/03 09:46:26;;;;;;;5.20;2.50;;;10.80;99.90;;;;;;5145818;22;20199;-94
2023/04/03 09:48:40;;;;;;;6.28;2.22;;;10.80;99.90;;;;;;5153806;23;20144;-94
2023/04/03 09:54:40;;;;;;;5.80;2.42;;;10.30;99.90;;;;;;5095810;23;20252;-95
2023/04/03 09:57:14;;;;;;;6.45;1.98;;;11.20;99.90;;;;;;5087510;23;20233;-94
2023/04/03 09:59:41;;;;;;;4.20;2.05;;;11.00;99.90;;;;;;5102954;23;20164;-96
2023/04/03 10:07:11;;;;;;;8.43;2.30;;;10.90;99.90;;;;;;5163650;22;20209;-95
2023/04/03 10:09:54;;;;;;;7.20;2.03;;;10.50;99.90;;;;;;5124786;23;20151;-94
2023/04/03 10:17:13;;;;;;;;;;;;;;;;;;;;;
2023/04/03 10:19:54;;;;;;;7.37;2.00;;;9.80;99.90;;;;;;5157196;23;20162;-95
2023/04/03 10:22:20;;;;;;;8.70;2.00;;;9.80;99.90;;;;;;5132382;23;20140;-95
2023/04/03 10:25:04;;;;;;;4.77;1.50;;;9.70;99.90;;;;;;5110742;23;20170;-94
2023/04/03 10:27:48;;;;;;;7.00;1.88;;;9.60;99.90;;;;;;5136337;23;20239;-94
2023/04/03 10:30:26;;;;;;;;;;;;;;;;;;;;;
2023/04/03 10:32:41;;;;;;;4.27;1.50;;;9.70;99.90;;;;;;5123677;23;20176;-95
2023/04/03 10:35:01;;;;;;;4.10;1.90;;;9.50;99.90;;;;;;5107057;23;20173;-95
2023/04/03 10:37:51;;;;;;;9.27;1.93;;;9.50;99.90;;;;;;5107918;23;20607;-95
2023/04/03 10:40:26;;;;;;;5.68;1.88;;;9.70;99.90;;;;;;5108897;23;20223;-96
2023/04/03 10:42:59;;;;;;;4.20;1.67;;;9.50;99.90;;;;;;5135032;23;20214;-96
2023/04/03 10:45:37;;;;;;;4.73;1.60;;;9.60;99.90;;;;;;5100278;23;20637;-96
2023/04/03 10:47:53;;;;;;;4.60;1.70;;;9.70;99.90;;;;;;5109070;23;20195;-93
2023/04/03 10:50:20;;;;;;;5.20;1.57;;;9.80;99.90;;;;;;5126975;23;20580;-94
2023/04/03 10:52:47;;;;;;;8.30;1.88;;;10.10;99.90;;;;;;5058981;23;20195;-96
2023/04/03 10:55:36;;;;;;;2.40;1.35;;;9.90;99.90;;;;;;5098991;23;20157;-96
2023/04/03 10:57:41;;;;;;;4.18;1.50;;;9.60;99.90;;;;;;5092277;23;20208;-94
2023/04/03 11:00:04;;;;;;;4.18;1.30;;;9.80;99.90;;;;;;5108822;23;20141;-93
2023/04/03 11:02:43;;;;;;;;;;;;;;;;;;;;;
2023/04/03 11:05:16;;;;;;;6.22;1.80;;;10.00;99.90;;;;;;5103454;23;20204;-94
2023/04/03 11:07:36;;;;;;;6.20;1.35;;;10.00;99.90;;;;;;5135244;23;20188;-94
2023/04/03 11:10:32;;;;;;;4.10;1.33;;;10.20;99.90;;;;;;5136936;23;20212;-95
2023/04/03 11:12:59;;;;;;;5.97;1.55;;;10.20;99.90;;;;;;5155596;23;20155;-93
2023/04/03 11:15:17;;;;;;;4.53;1.40;;;10.00;99.90;;;;;;5136607;23;20204;-96
2023/04/03 11:17:54;;;;;;;5.47;1.40;;;9.90;99.90;;;;;;5083231;23;20146;-96
2023/04/03 11:20:06;;;;;;;4.85;1.40;;;10.10;99.90;;;;;;5139224;23;20164;-93
2023/04/03 11:23:35;;;;;;;4.43;1.42;;;10.20;99.90;;;;;;5152950;22;20164;-96
2023/04/03 11:25:44;;;;;;;7.83;1.50;;;10.10;99.90;;;;;;5135849;23;20196;-95
2023/04/03 11:27:56;;;;;;;5.13;1.50;;;10.10;99.90;;;;;;5138449;23;20164;-96
2023/04/03 11:30:43;;;;;;;4.60;1.30;;;10.20;99.90;;;;;;5137621;23;20184;-95
2023/04/03 11:33:20;;;;;;;4.30;1.33;;;10.30;99.90;;;;;;5114055;23;20558;-95
2023/04/03 11:36:10;;;;;;;4.75;1.40;;;10.60;99.90;;;;;;5140778;23;20148;-95
2023/04/03 11:38:22;;;;;;;5.05;1.60;;;10.50;99.90;;;;;;5111838;23;20188;-95
2023/04/03 11:41:08;;;;;;;6.47;1.20;;;10.70;99.90;;;;;;5167051;23;20196;-95
2023/04/03 11:43:32;;;;;;;8.07;1.45;;;10.60;99.90;;;;;;5109264;23;20177;-96
2023/04/03 11:46:09;;;;;;;6.13;1.30;;;10.60;99.90;;;;;;5139667;23;20175;-95
2023/04/03 11:48:17;;;;;;;3.83;1.00;;;10.60;99.90;;;;;;5136062;23;20203;-96
2023/04/03 11:50:51;;;;;;;3.85;1.10;;;10.40;99.90;;;;;;5114035;23;20237;-96
2023/04/03 11:53:19;;;;;;;4.80;1.20;;;10.30;99.90;;;;;;5163826;22;20171;-95
2023/04/03 11:55:33;;;;;;;5.07;1.52;;;10.30;99.90;;;;;;5072743;23;21071;-90
2023/04/03 11:58:15;;;;;;;5.13;1.50;;;10.40;99.90;;;;;;5106811;23;20177;-94
2023/04/03 12:00:43;;;;;;;3.28;1.00;;;10.30;99.90;;;;;;5103975;23;20168;-95
2023/04/03 12:02:48;;;;;;;2.13;1.00;;;10.30;99.90;;;;;;5088311;23;20244;-96
2023/04/03 12:05:31;;;;;;;5.35;1.33;;;10.50;99.90;;;;;;5082759;23;20138;-92
2023/04/03 12:08:18;;;;;;;6.35;1.33;;;10.70;99.90;;;;;;5084277;23;20201;-95
2023/04/03 12:10:19;;;;;;;5.88;1.42;;;11.00;99.90;;;;;;5113078;23;20184;-92
2023/04/03 12:12:58;;;;;;;9.23;1.90;;;11.00;99.90;;;;;;5113217;23;20172;-92
2023/04/03 12:15:38;;;;;;;5.05;1.30;;;10.60;99.90;;;;;;5112927;23;20228;-92